sensor_id;sensor_type;location;lat;lon;timestamp;temperature;humidity
54190;DHT22;40340;53.208;6.582;2022-10-13T00:01:46;11.20;99.90
54190;DHT22;40340;53.208;6.582;2022-10-13T00:04:11;11.20;99.90
54190;DHT22;40340;53.208;6.582;2022-10-13T00:06:37;11.20;99.90
54190;DHT22;40340;53.208;6.582;2022-10-13T00:09:03;11.20;99.90
54190;DHT22;40340;53.208;6.582;2022-10-13T00:11:29;11.10;99.90
54190;DHT22;40340;53.208;6.582;2022-10-13T00:14:00;11.10;99.90
54190;DHT22;40340;53.208;6.582;2022-10-13T00:16:27;11.10;99.90
54190;DHT22;40340;53.208;6.582;2022-10-13T00:18:53;11.10;99.90
54190;DHT22;40340;53.208;6.582;2022-10-13T00:21:22;11.10;99.90
54190;DHT22;40340;53.208;6.582;2022-10-13T00:23:48;11.80;99.90
54190;DHT22;40340;53.208;6.582;2022-10-13T00:26:15;11.10;99.90
54190;DHT22;40340;53.208;6.582;2022-10-13T00:28:41;11.20;99.90
54190;DHT22;40340;53.208;6.582;2022-10-13T00:33:39;11.20;99.90
54190;DHT22;40340;53.208;6.582;2022-10-13T00:36:05;11.20;99.90
54190;DHT22;40340;53.208;6.582;2022-10-13T00:38:31;11.20;99.90
54190;DHT22;40340;53.208;6.582;2022-10-13T00:40:56;11.10;99.90
54190;DHT22;40340;53.208;6.582;2022-10-13T00:43:26;11.10;99.90
54190;DHT22;40340;53.208;6.582;2022-10-13T00:45:52;11.10;99.90
54190;DHT22;40340;53.208;6.582;2022-10-13T00:48:24;11.10;99.90
54190;DHT22;40340;53.208;6.582;2022-10-13T00:50:51;11.10;99.90
54190;DHT22;40340;53.208;6.582;2022-10-13T00:53:21;11.20;99.90
54190;DHT22;40340;53.208;6.582;2022-10-13T00:55:48;11.20;99.90
54190;DHT22;40340;53.208;6.582;2022-10-13T00:58:17;11.20;99.90
54190;DHT22;40340;53.208;6.582;2022-10-13T01:00:46;11.20;99.90
54190;DHT22;40340;53.208;6.582;2022-10-13T01:03:13;11.20;99.90
54190;DHT22;40340;53.208;6.582;2022-10-13T01:05:40;11.20;99.90
54190;DHT22;40340;53.208;6.582;2022-10-13T01:08:07;11.30;99.90
54190;DHT22;40340;53.208;6.582;2022-10-13T01:10:41;11.20;99.90
54190;DHT22;40340;53.208;6.582;2022-10-13T01:15:52;11.20;99.90
54190;DHT22;40340;53.208;6.582;2022-10-13T01:26:47;11.20;99.90
54190;DHT22;40340;53.208;6.582;2022-10-13T01:32:49;11.20;99.90
54190;DHT22;40340;53.208;6.582;2022-10-13T01:43:38;11.10;99.90
54190;DHT22;40340;53.208;6.582;2022-10-13T01:46:26;11.20;99.90
54190;DHT22;40340;53.208;6.582;2022-10-13T01:48:57;11.10;99.90
54190;DHT22;40340;53.208;6.582;2022-10-13T01:51:24;11.10;99.90
54190;DHT22;40340;53.208;6.582;2022-10-13T01:53:51;11.10;99.90
54190;DHT22;40340;53.208;6.582;2022-10-13T01:56:17;11.00;99.90
54190;DHT22;40340;53.208;6.582;2022-10-13T01:58:43;11.10;99.90
54190;DHT22;40340;53.208;6.582;2022-10-13T02:01:19;11.10;99.90
54190;DHT22;40340;53.208;6.582;2022-10-13T02:06:31;11.10;99.90
54190;DHT22;40340;53.208;6.582;2022-10-13T02:09:07;11.00;99.90
54190;DHT22;40340;53.208;6.582;2022-10-13T02:11:34;11.00;99.90
54190;DHT22;40340;53.208;6.582;2022-10-13T02:16:38;11.00;99.90
54190;DHT22;40340;53.208;6.582;2022-10-13T02:19:07;10.90;99.90
54190;DHT22;40340;53.208;6.582;2022-10-13T02:21:35;10.90;99.90
54190;DHT22;40340;53.208;6.582;2022-10-13T02:24:05;10.90;99.90
54190;DHT22;40340;53.208;6.582;2022-10-13T02:26:32;10.90;99.90
54190;DHT22;40340;53.208;6.582;2022-10-13T02:28:58;10.80;99.90
54190;DHT22;40340;53.208;6.582;2022-10-13T02:31:24;10.80;99.90
54190;DHT22;40340;53.208;6.582;2022-10-13T02:33:50;10.90;99.90
54190;DHT22;40340;53.208;6.582;2022-10-13T02:36:15;10.80;99.90
54190;DHT22;40340;53.208;6.582;2022-10-13T02:38:41;10.70;99.90
54190;DHT22;40340;53.208;6.582;2022-10-13T02:41:07;10.70;99.90
54190;DHT22;40340;53.208;6.582;2022-10-13T02:43:32;10.70;99.90
54190;DHT22;40340;53.208;6.582;2022-10-13T02:46:01;10.60;99.90
54190;DHT22;40340;53.208;6.582;2022-10-13T02:48:27;10.60;99.90
54190;DHT22;40340;53.208;6.582;2022-10-13T02:50:53;10.60;99.90
54190;DHT22;40340;53.208;6.582;2022-10-13T02:53:18;10.60;99.90
54190;DHT22;40340;53.208;6.582;2022-10-13T02:55:44;10.50;99.90
54190;DHT22;40340;53.208;6.582;2022-10-13T02:58:10;10.50;99.90
54190;DHT22;40340;53.208;6.582;2022-10-13T03:00:35;10.60;99.90
54190;DHT22;40340;53.208;6.582;2022-10-13T03:03:04;10.50;99.90
54190;DHT22;40340;53.208;6.582;2022-10-13T03:05:29;10.50;99.90
54190;DHT22;40340;53.208;6.582;2022-10-13T03:07:55;10.50;99.90
54190;DHT22;40340;53.208;6.582;2022-10-13T03:10:21;10.50;99.90
54190;DHT22;40340;53.208;6.582;2022-10-13T03:12:46;10.50;99.90
54190;DHT22;40340;53.208;6.582;2022-10-13T03:15:12;10.50;99.90
54190;DHT22;40340;53.208;6.582;2022-10-13T03:17:38;10.50;99.90
54190;DHT22;40340;53.208;6.582;2022-10-13T03:20:04;10.50;99.90
54190;DHT22;40340;53.208;6.582;2022-10-13T03:22:31;10.50;99.90
54190;DHT22;40340;53.208;6.582;2022-10-13T03:24:57;10.50;99.90
54190;DHT22;40340;53.208;6.582;2022-10-13T03:27:23;10.60;99.90
54190;DHT22;40340;53.208;6.582;2022-10-13T03:29:49;10.60;99.90
54190;DHT22;40340;53.208;6.582;2022-10-13T03:32:14;10.60;99.90
54190;DHT22;40340;53.208;6.582;2022-10-13T03:34:41;10.50;99.90
54190;DHT22;40340;53.208;6.582;2022-10-13T03:37:07;10.60;99.90
54190;DHT22;40340;53.208;6.582;2022-10-13T03:39:32;10.60;99.90
54190;DHT22;40340;53.208;6.582;2022-10-13T03:41:58;10.60;99.90
54190;DHT22;40340;53.208;6.582;2022-10-13T03:44:24;10.50;99.90
54190;DHT22;40340;53.208;6.582;2022-10-13T03:46:49;10.50;99.90
54190;DHT22;40340;53.208;6.582;2022-10-13T03:49:15;10.50;99.90
54190;DHT22;40340;53.208;6.582;2022-10-13T03:51:41;10.50;99.90
54190;DHT22;40340;53.208;6.582;2022-10-13T03:54:10;10.50;99.90
54190;DHT22;40340;53.208;6.582;2022-10-13T03:56:36;10.50;99.90
54190;DHT22;40340;53.208;6.582;2022-10-13T03:59:01;10.50;99.90
54190;DHT22;40340;53.208;6.582;2022-10-13T04:01:30;10.50;99.90
54190;DHT22;40340;53.208;6.582;2022-10-13T04:03:57;10.50;99.90
54190;DHT22;40340;53.208;6.582;2022-10-13T04:06:24;10.50;99.90
54190;DHT22;40340;53.208;6.582;2022-10-13T04:08:50;10.50;99.90
54190;DHT22;40340;53.208;6.582;2022-10-13T04:11:16;10.50;99.90
54190;DHT22;40340;53.208;6.582;2022-10-13T04:13:43;10.50;99.90
54190;DHT22;40340;53.208;6.582;2022-10-13T04:16:15;10.50;99.90
54190;DHT22;40340;53.208;6.582;2022-10-13T04:18:41;10.50;99.90
54190;DHT22;40340;53.208;6.582;2022-10-13T04:21:09;10.40;99.90
54190;DHT22;40340;53.208;6.582;2022-10-13T04:23:35;10.50;99.90
54190;DHT22;40340;53.208;6.582;2022-10-13T04:26:02;10.40;99.90
54190;DHT22;40340;53.208;6.582;2022-10-13T04:28:28;10.40;99.90
54190;DHT22;40340;53.208;6.582;2022-10-13T04:30:54;10.40;99.90
54190;DHT22;40340;53.208;6.582;2022-10-13T04:33:19;10.40;99.90
54190;DHT22;40340;53.208;6.582;2022-10-13T04:35:45;10.40;99.90
54190;DHT22;40340;53.208;6.582;2022-10-13T04:38:10;10.40;99.90
54190;DHT22;40340;53.208;6.582;2022-10-13T04:40:36;10.40;99.90
54190;DHT22;40340;53.208;6.582;2022-10-13T04:43:02;10.40;99.90
54190;DHT22;40340;53.208;6.582;2022-10-13T04:45:27;10.40;99.90
54190;DHT22;40340;53.208;6.582;2022-10-13T04:47:53;10.40;99.90
54190;DHT22;40340;53.208;6.582;2022-10-13T04:50:18;11.30;99.90
54190;DHT22;40340;53.208;6.582;2022-10-13T04:52:44;10.40;99.90
54190;DHT22;40340;53.208;6.582;2022-10-13T04:55:10;10.40;99.90
54190;DHT22;40340;53.208;6.582;2022-10-13T04:57:35;10.40;99.90
54190;DHT22;40340;53.208;6.582;2022-10-13T05:00:02;10.40;99.90
54190;DHT22;40340;53.208;6.582;2022-10-13T05:02:28;10.40;99.90
54190;DHT22;40340;53.208;6.582;2022-10-13T05:04:53;10.40;99.90
54190;DHT22;40340;53.208;6.582;2022-10-13T05:07:19;10.40;99.90
54190;DHT22;40340;53.208;6.582;2022-10-13T05:09:45;10.30;99.90
54190;DHT22;40340;53.208;6.582;2022-10-13T05:12:10;10.40;99.90
54190;DHT22;40340;53.208;6.582;2022-10-13T05:14:36;10.40;99.90
54190;DHT22;40340;53.208;6.582;2022-10-13T05:17:01;10.40;99.90
54190;DHT22;40340;53.208;6.582;2022-10-13T05:19:27;10.30;99.90
54190;DHT22;40340;53.208;6.582;2022-10-13T05:21:53;10.40;99.90
54190;DHT22;40340;53.208;6.582;2022-10-13T05:24:18;10.40;99.90
54190;DHT22;40340;53.208;6.582;2022-10-13T05:26:55;10.40;99.90
54190;DHT22;40340;53.208;6.582;2022-10-13T05:29:21;10.40;99.90
54190;DHT22;40340;53.208;6.582;2022-10-13T05:31:46;10.30;99.90
54190;DHT22;40340;53.208;6.582;2022-10-13T05:34:12;10.40;99.90
54190;DHT22;40340;53.208;6.582;2022-10-13T05:36:38;10.40;99.90
54190;DHT22;40340;53.208;6.582;2022-10-13T05:39:05;10.40;99.90
54190;DHT22;40340;53.208;6.582;2022-10-13T05:41:32;10.40;99.90
54190;DHT22;40340;53.208;6.582;2022-10-13T05:44:00;10.40;99.90
54190;DHT22;40340;53.208;6.582;2022-10-13T05:46:26;10.30;99.90
54190;DHT22;40340;53.208;6.582;2022-10-13T05:48:52;10.40;99.90
54190;DHT22;40340;53.208;6.582;2022-10-13T05:51:21;10.40;99.90
54190;DHT22;40340;53.208;6.582;2022-10-13T05:53:52;10.30;99.90
54190;DHT22;40340;53.208;6.582;2022-10-13T05:56:21;10.30;99.90
54190;DHT22;40340;53.208;6.582;2022-10-13T05:58:51;10.30;99.90
54190;DHT22;40340;53.208;6.582;2022-10-13T06:01:21;10.30;99.90
54190;DHT22;40340;53.208;6.582;2022-10-13T06:03:51;10.30;99.90
54190;DHT22;40340;53.208;6.582;2022-10-13T06:06:17;10.30;99.90
54190;DHT22;40340;53.208;6.582;2022-10-13T06:08:43;10.30;99.90
54190;DHT22;40340;53.208;6.582;2022-10-13T06:11:09;10.30;99.90
54190;DHT22;40340;53.208;6.582;2022-10-13T06:13:35;10.30;99.90
54190;DHT22;40340;53.208;6.582;2022-10-13T06:16:01;10.20;99.90
54190;DHT22;40340;53.208;6.582;2022-10-13T06:18:27;10.30;99.90
54190;DHT22;40340;53.208;6.582;2022-10-13T06:20:52;10.20;99.90
54190;DHT22;40340;53.208;6.582;2022-10-13T06:23:18;10.30;99.90
54190;DHT22;40340;53.208;6.582;2022-10-13T06:25:48;10.30;99.90
54190;DHT22;40340;53.208;6.582;2022-10-13T06:28:14;10.30;99.90
54190;DHT22;40340;53.208;6.582;2022-10-13T06:30:40;10.30;99.90
54190;DHT22;40340;53.208;6.582;2022-10-13T06:33:07;10.30;99.90
54190;DHT22;40340;53.208;6.582;2022-10-13T06:35:34;10.40;99.90
54190;DHT22;40340;53.208;6.582;2022-10-13T06:38:00;10.40;99.90
54190;DHT22;40340;53.208;6.582;2022-10-13T06:40:26;10.40;99.90
54190;DHT22;40340;53.208;6.582;2022-10-13T06:42:52;10.30;99.90
54190;DHT22;40340;53.208;6.582;2022-10-13T06:45:17;10.40;99.90
54190;DHT22;40340;53.208;6.582;2022-10-13T06:47:44;10.40;99.90
54190;DHT22;40340;53.208;6.582;2022-10-13T06:50:10;10.50;99.90
54190;DHT22;40340;53.208;6.582;2022-10-13T06:52:36;10.50;99.90
54190;DHT22;40340;53.208;6.582;2022-10-13T06:55:03;10.60;99.90
54190;DHT22;40340;53.208;6.582;2022-10-13T06:57:29;10.60;99.90
54190;DHT22;40340;53.208;6.582;2022-10-13T06:59:54;10.60;99.90
54190;DHT22;40340;53.208;6.582;2022-10-13T07:02:20;10.70;99.90
54190;DHT22;40340;53.208;6.582;2022-10-13T07:04:46;10.60;99.90
54190;DHT22;40340;53.208;6.582;2022-10-13T07:07:12;10.70;99.90
54190;DHT22;40340;53.208;6.582;2022-10-13T07:09:38;10.70;99.90
54190;DHT22;40340;53.208;6.582;2022-10-13T07:12:04;10.70;99.90
54190;DHT22;40340;53.208;6.582;2022-10-13T07:14:29;10.80;99.90
54190;DHT22;40340;53.208;6.582;2022-10-13T07:16:55;10.80;99.90
54190;DHT22;40340;53.208;6.582;2022-10-13T07:19:21;10.80;99.90
54190;DHT22;40340;53.208;6.582;2022-10-13T07:21:46;10.90;99.90
54190;DHT22;40340;53.208;6.582;2022-10-13T07:24:12;10.90;99.90
54190;DHT22;40340;53.208;6.582;2022-10-13T07:26:38;11.00;99.90
54190;DHT22;40340;53.208;6.582;2022-10-13T07:29:04;11.00;99.90
54190;DHT22;40340;53.208;6.582;2022-10-13T07:31:30;11.10;99.90
54190;DHT22;40340;53.208;6.582;2022-10-13T07:33:57;11.10;99.90
54190;DHT22;40340;53.208;6.582;2022-10-13T07:36:23;11.20;99.90
54190;DHT22;40340;53.208;6.582;2022-10-13T07:38:49;11.20;99.90
54190;DHT22;40340;53.208;6.582;2022-10-13T07:41:14;11.30;99.90
54190;DHT22;40340;53.208;6.582;2022-10-13T07:43:41;11.30;99.90
54190;DHT22;40340;53.208;6.582;2022-10-13T07:46:07;11.40;99.90
54190;DHT22;40340;53.208;6.582;2022-10-13T07:48:33;11.40;99.90
54190;DHT22;40340;53.208;6.582;2022-10-13T07:51:03;11.40;99.90
54190;DHT22;40340;53.208;6.582;2022-10-13T07:53:30;11.50;99.90
54190;DHT22;40340;53.208;6.582;2022-10-13T07:55:59;11.50;99.90
54190;DHT22;40340;53.208;6.582;2022-10-13T07:58:25;11.50;99.90
54190;DHT22;40340;53.208;6.582;2022-10-13T08:01:01;11.50;99.90
54190;DHT22;40340;53.208;6.582;2022-10-13T08:03:27;11.50;99.90
54190;DHT22;40340;53.208;6.582;2022-10-13T08:05:54;11.60;99.90
54190;DHT22;40340;53.208;6.582;2022-10-13T08:08:20;11.60;99.90
54190;DHT22;40340;53.208;6.582;2022-10-13T08:10:46;11.60;99.90
54190;DHT22;40340;53.208;6.582;2022-10-13T08:13:12;11.60;99.90
54190;DHT22;40340;53.208;6.582;2022-10-13T08:15:39;11.70;99.90
54190;DHT22;40340;53.208;6.582;2022-10-13T08:18:05;11.70;99.90
54190;DHT22;40340;53.208;6.582;2022-10-13T08:20:31;11.70;99.90
54190;DHT22;40340;53.208;6.582;2022-10-13T08:22:56;11.80;99.90
54190;DHT22;40340;53.208;6.582;2022-10-13T08:25:22;11.70;99.90
54190;DHT22;40340;53.208;6.582;2022-10-13T08:27:51;11.80;99.90
54190;DHT22;40340;53.208;6.582;2022-10-13T08:30:17;11.70;99.90
54190;DHT22;40340;53.208;6.582;2022-10-13T08:32:43;11.70;99.90
54190;DHT22;40340;53.208;6.582;2022-10-13T08:35:09;11.70;99.90
54190;DHT22;40340;53.208;6.582;2022-10-13T08:37:35;11.90;99.90
54190;DHT22;40340;53.208;6.582;2022-10-13T08:40:00;11.90;99.90
54190;DHT22;40340;53.208;6.582;2022-10-13T08:42:26;11.80;99.90
54190;DHT22;40340;53.208;6.582;2022-10-13T08:45:00;11.90;99.90
54190;DHT22;40340;53.208;6.582;2022-10-13T08:49:54;11.90;99.90
54190;DHT22;40340;53.208;6.582;2022-10-13T08:52:23;11.90;99.90
54190;DHT22;40340;53.208;6.582;2022-10-13T08:54:50;11.90;99.90
54190;DHT22;40340;53.208;6.582;2022-10-13T08:57:18;12.00;99.90
54190;DHT22;40340;53.208;6.582;2022-10-13T08:59:43;12.00;99.90
54190;DHT22;40340;53.208;6.582;2022-10-13T09:02:32;12.00;99.90
54190;DHT22;40340;53.208;6.582;2022-10-13T09:04:59;12.00;99.90
54190;DHT22;40340;53.208;6.582;2022-10-13T09:07:30;12.00;99.90
54190;DHT22;40340;53.208;6.582;2022-10-13T09:09:59;12.00;99.90
54190;DHT22;40340;53.208;6.582;2022-10-13T09:12:25;12.00;99.90
54190;DHT22;40340;53.208;6.582;2022-10-13T09:15:17;12.00;99.90
54190;DHT22;40340;53.208;6.582;2022-10-13T09:17:44;12.10;99.90
54190;DHT22;40340;53.208;6.582;2022-10-13T09:20:22;12.10;99.90
54190;DHT22;40340;53.208;6.582;2022-10-13T09:23:06;12.10;99.90
54190;DHT22;40340;53.208;6.582;2022-10-13T09:25:45;12.20;99.90
54190;DHT22;40340;53.208;6.582;2022-10-13T09:28:22;12.20;99.90
54190;DHT22;40340;53.208;6.582;2022-10-13T09:31:01;12.30;99.90
54190;DHT22;40340;53.208;6.582;2022-10-13T09:33:27;12.30;99.90
54190;DHT22;40340;53.208;6.582;2022-10-13T09:38:23;12.30;99.90
54190;DHT22;40340;53.208;6.582;2022-10-13T09:43:56;12.40;99.90
54190;DHT22;40340;53.208;6.582;2022-10-13T09:46:33;12.30;99.90
54190;DHT22;40340;53.208;6.582;2022-10-13T09:49:32;12.70;99.90
54190;DHT22;40340;53.208;6.582;2022-10-13T09:52:20;12.40;99.90
54190;DHT22;40340;53.208;6.582;2022-10-13T09:54:48;12.40;99.90
54190;DHT22;40340;53.208;6.582;2022-10-13T09:59:49;12.50;99.90
54190;DHT22;40340;53.208;6.582;2022-10-13T10:02:25;12.50;99.90
54190;DHT22;40340;53.208;6.582;2022-10-13T10:04:53;12.60;99.90
54190;DHT22;40340;53.208;6.582;2022-10-13T10:07:25;12.60;99.90
54190;DHT22;40340;53.208;6.582;2022-10-13T10:09:59;12.60;99.90
54190;DHT22;40340;53.208;6.582;2022-10-13T10:12:29;12.70;99.90
54190;DHT22;40340;53.208;6.582;2022-10-13T10:14:55;12.80;99.90
54190;DHT22;40340;53.208;6.582;2022-10-13T10:20:23;12.90;99.90
54190;DHT22;40340;53.208;6.582;2022-10-13T10:25:44;13.00;99.90
54190;DHT22;40340;53.208;6.582;2022-10-13T10:30:50;13.00;99.90
54190;DHT22;40340;53.208;6.582;2022-10-13T10:33:43;13.00;99.90
54190;DHT22;40340;53.208;6.582;2022-10-13T10:36:15;12.90;99.90
54190;DHT22;40340;53.208;6.582;2022-10-13T10:38:51;13.00;99.90
54190;DHT22;40340;53.208;6.582;2022-10-13T10:41:42;12.90;99.90
54190;DHT22;40340;53.208;6.582;2022-10-13T10:44:12;13.00;99.90
54190;DHT22;40340;53.208;6.582;2022-10-13T10:46:48;13.00;99.90
54190;DHT22;40340;53.208;6.582;2022-10-13T10:51:40;13.00;99.90
54190;DHT22;40340;53.208;6.582;2022-10-13T10:54:20;13.10;99.90
54190;DHT22;40340;53.208;6.582;2022-10-13T10:57:14;13.00;99.90
54190;DHT22;40340;53.208;6.582;2022-10-13T10:59:53;13.00;99.90
54190;DHT22;40340;53.208;6.582;2022-10-13T11:04:52;13.00;99.90
54190;DHT22;40340;53.208;6.582;2022-10-13T11:15:10;13.00;99.90
54190;DHT22;40340;53.208;6.582;2022-10-13T11:17:38;13.00;99.90
54190;DHT22;40340;53.208;6.582;2022-10-13T11:25:46;13.10;99.90
54190;DHT22;40340;53.208;6.582;2022-10-13T11:30:52;13.20;99.90
54190;DHT22;40340;53.208;6.582;2022-10-13T11:44:54;13.40;99.90
54190;DHT22;40340;53.208;6.582;2022-10-13T11:50:14;13.50;99.90
54190;DHT22;40340;53.208;6.582;2022-10-13T11:53:20;13.50;99.90
54190;DHT22;40340;53.208;6.582;2022-10-13T11:58:18;13.50;99.90
54190;DHT22;40340;53.208;6.582;2022-10-13T12:00:57;13.50;99.90
54190;DHT22;40340;53.208;6.582;2022-10-13T12:05:52;13.50;99.90
54190;DHT22;40340;53.208;6.582;2022-10-13T12:08:19;13.60;99.90
54190;DHT22;40340;53.208;6.582;2022-10-13T12:10:51;13.60;99.90
54190;DHT22;40340;53.208;6.582;2022-10-13T12:13:23;13.60;99.90
54190;DHT22;40340;53.208;6.582;2022-10-13T12:16:01;13.60;99.90
54190;DHT22;40340;53.208;6.582;2022-10-13T12:18:32;13.60;99.90
54190;DHT22;40340;53.208;6.582;2022-10-13T12:21:08;13.70;99.90
54190;DHT22;40340;53.208;6.582;2022-10-13T12:23:34;13.80;99.90
54190;DHT22;40340;53.208;6.582;2022-10-13T12:26:00;13.80;99.90
54190;DHT22;40340;53.208;6.582;2022-10-13T12:28:49;13.80;99.90
54190;DHT22;40340;53.208;6.582;2022-10-13T12:31:38;14.00;99.90
54190;DHT22;40340;53.208;6.582;2022-10-13T12:36:46;13.90;99.90
54190;DHT22;40340;53.208;6.582;2022-10-13T12:39:17;14.00;99.90
54190;DHT22;40340;53.208;6.582;2022-10-13T12:41:48;14.00;99.90
54190;DHT22;40340;53.208;6.582;2022-10-13T12:44:24;14.00;99.90
54190;DHT22;40340;53.208;6.582;2022-10-13T12:46:52;14.10;99.90
54190;DHT22;40340;53.208;6.582;2022-10-13T12:49:29;14.00;99.90
54190;DHT22;40340;53.208;6.582;2022-10-13T12:54:32;14.10;99.90
54190;DHT22;40340;53.208;6.582;2022-10-13T12:57:01;14.00;99.90
54190;DHT22;40340;53.208;6.582;2022-10-13T12:59:29;14.00;99.90
54190;DHT22;40340;53.208;6.582;2022-10-13T13:02:00;14.00;99.90
54190;DHT22;40340;53.208;6.582;2022-10-13T13:07:03;14.00;99.90
54190;DHT22;40340;53.208;6.582;2022-10-13T13:09:30;14.20;99.90
54190;DHT22;40340;53.208;6.582;2022-10-13T13:14:37;14.10;99.90
54190;DHT22;40340;53.208;6.582;2022-10-13T13:19:45;14.00;99.90
54190;DHT22;40340;53.208;6.582;2022-10-13T13:22:11;14.00;99.90
54190;DHT22;40340;53.208;6.582;2022-10-13T13:24:37;14.10;99.90
54190;DHT22;40340;53.208;6.582;2022-10-13T13:27:24;14.00;99.90
54190;DHT22;40340;53.208;6.582;2022-10-13T13:29:52;14.10;99.90
54190;DHT22;40340;53.208;6.582;2022-10-13T13:32:19;14.10;99.90
54190;DHT22;40340;53.208;6.582;2022-10-13T13:34:45;14.00;99.90
54190;DHT22;40340;53.208;6.582;2022-10-13T13:37:28;14.10;99.90
54190;DHT22;40340;53.208;6.582;2022-10-13T13:39:56;14.10;99.90
54190;DHT22;40340;53.208;6.582;2022-10-13T13:42:22;14.10;99.90
54190;DHT22;40340;53.208;6.582;2022-10-13T13:44:48;14.10;99.90
54190;DHT22;40340;53.208;6.582;2022-10-13T13:47:16;14.10;99.90
54190;DHT22;40340;53.208;6.582;2022-10-13T13:49:42;14.10;99.90
54190;DHT22;40340;53.208;6.582;2022-10-13T13:52:08;14.20;99.90
54190;DHT22;40340;53.208;6.582;2022-10-13T13:54:33;14.30;99.90
54190;DHT22;40340;53.208;6.582;2022-10-13T13:56:59;14.20;99.90
54190;DHT22;40340;53.208;6.582;2022-10-13T13:59:25;14.20;99.90
54190;DHT22;40340;53.208;6.582;2022-10-13T14:01:51;14.30;99.90
54190;DHT22;40340;53.208;6.582;2022-10-13T14:04:16;14.20;99.90
54190;DHT22;40340;53.208;6.582;2022-10-13T14:06:42;14.20;99.90
54190;DHT22;40340;53.208;6.582;2022-10-13T14:09:07;14.20;99.90
54190;DHT22;40340;53.208;6.582;2022-10-13T14:11:33;14.20;99.90
54190;DHT22;40340;53.208;6.582;2022-10-13T14:13:58;14.20;99.90
54190;DHT22;40340;53.208;6.582;2022-10-13T14:16:26;14.20;99.90
54190;DHT22;40340;53.208;6.582;2022-10-13T14:18:52;14.20;99.90
54190;DHT22;40340;53.208;6.582;2022-10-13T14:21:20;14.20;99.90
54190;DHT22;40340;53.208;6.582;2022-10-13T14:23:45;14.20;99.90
54190;DHT22;40340;53.208;6.582;2022-10-13T14:26:12;14.20;99.90
54190;DHT22;40340;53.208;6.582;2022-10-13T14:28:42;14.20;99.90
54190;DHT22;40340;53.208;6.582;2022-10-13T14:31:08;14.20;99.90
54190;DHT22;40340;53.208;6.582;2022-10-13T14:33:34;14.20;99.90
54190;DHT22;40340;53.208;6.582;2022-10-13T14:36:01;14.10;99.90
54190;DHT22;40340;53.208;6.582;2022-10-13T14:38:27;14.10;99.90
54190;DHT22;40340;53.208;6.582;2022-10-13T14:40:57;14.10;99.90
54190;DHT22;40340;53.208;6.582;2022-10-13T14:43:23;14.10;99.90
54190;DHT22;40340;53.208;6.582;2022-10-13T14:45:49;14.10;99.90
54190;DHT22;40340;53.208;6.582;2022-10-13T14:48:15;14.10;99.90
54190;DHT22;40340;53.208;6.582;2022-10-13T14:50:40;14.10;99.90
54190;DHT22;40340;53.208;6.582;2022-10-13T14:53:06;14.10;99.90
54190;DHT22;40340;53.208;6.582;2022-10-13T14:55:34;14.20;99.90
54190;DHT22;40340;53.208;6.582;2022-10-13T14:57:59;14.20;99.90
54190;DHT22;40340;53.208;6.582;2022-10-13T15:00:25;14.10;99.90
54190;DHT22;40340;53.208;6.582;2022-10-13T15:02:51;14.20;99.90
54190;DHT22;40340;53.208;6.582;2022-10-13T15:05:16;14.10;99.90
54190;DHT22;40340;53.208;6.582;2022-10-13T15:07:43;14.20;99.90
54190;DHT22;40340;53.208;6.582;2022-10-13T15:10:08;14.00;99.90
54190;DHT22;40340;53.208;6.582;2022-10-13T15:12:34;14.10;99.90
54190;DHT22;40340;53.208;6.582;2022-10-13T15:15:01;14.10;99.90
54190;DHT22;40340;53.208;6.582;2022-10-13T15:17:26;14.00;99.90
54190;DHT22;40340;53.208;6.582;2022-10-13T15:19:52;14.00;99.90
54190;DHT22;40340;53.208;6.582;2022-10-13T15:22:18;14.10;99.90
54190;DHT22;40340;53.208;6.582;2022-10-13T15:24:43;14.10;99.90
54190;DHT22;40340;53.208;6.582;2022-10-13T15:27:10;14.00;99.90
54190;DHT22;40340;53.208;6.582;2022-10-13T15:29:35;14.00;99.90
54190;DHT22;40340;53.208;6.582;2022-10-13T15:32:15;14.10;99.90
54190;DHT22;40340;53.208;6.582;2022-10-13T15:34:45;14.10;99.90
54190;DHT22;40340;53.208;6.582;2022-10-13T15:37:11;14.10;99.90
54190;DHT22;40340;53.208;6.582;2022-10-13T15:39:37;14.10;99.90
54190;DHT22;40340;53.208;6.582;2022-10-13T15:42:04;14.10;99.90
54190;DHT22;40340;53.208;6.582;2022-10-13T15:44:30;14.10;99.90
54190;DHT22;40340;53.208;6.582;2022-10-13T15:46:56;14.10;99.90
54190;DHT22;40340;53.208;6.582;2022-10-13T15:49:23;14.10;99.90
54190;DHT22;40340;53.208;6.582;2022-10-13T15:51:49;14.10;99.90
54190;DHT22;40340;53.208;6.582;2022-10-13T15:54:15;14.10;99.90
54190;DHT22;40340;53.208;6.582;2022-10-13T15:56:42;14.10;99.90
54190;DHT22;40340;53.208;6.582;2022-10-13T15:59:07;14.00;99.90
54190;DHT22;40340;53.208;6.582;2022-10-13T16:01:33;14.10;99.90
54190;DHT22;40340;53.208;6.582;2022-10-13T16:03:58;14.00;99.90
54190;DHT22;40340;53.208;6.582;2022-10-13T16:06:24;14.10;99.90
54190;DHT22;40340;53.208;6.582;2022-10-13T16:08:51;14.10;99.90
54190;DHT22;40340;53.208;6.582;2022-10-13T16:11:19;14.10;99.90
54190;DHT22;40340;53.208;6.582;2022-10-13T16:13:47;14.10;99.90
54190;DHT22;40340;53.208;6.582;2022-10-13T16:16:13;14.00;99.90
54190;DHT22;40340;53.208;6.582;2022-10-13T16:18:39;14.10;99.90
54190;DHT22;40340;53.208;6.582;2022-10-13T16:21:13;14.00;99.90
54190;DHT22;40340;53.208;6.582;2022-10-13T16:23:39;14.00;99.90
54190;DHT22;40340;53.208;6.582;2022-10-13T16:26:05;14.00;99.90
54190;DHT22;40340;53.208;6.582;2022-10-13T16:28:31;14.00;99.90
54190;DHT22;40340;53.208;6.582;2022-10-13T16:31:19;14.00;99.90
54190;DHT22;40340;53.208;6.582;2022-10-13T16:33:45;13.90;99.90
54190;DHT22;40340;53.208;6.582;2022-10-13T16:36:13;14.00;99.90
54190;DHT22;40340;53.208;6.582;2022-10-13T16:38:39;13.90;99.90
54190;DHT22;40340;53.208;6.582;2022-10-13T16:41:06;13.90;99.90
54190;DHT22;40340;53.208;6.582;2022-10-13T16:43:33;13.90;99.90
54190;DHT22;40340;53.208;6.582;2022-10-13T16:46:00;13.90;99.90
54190;DHT22;40340;53.208;6.582;2022-10-13T16:48:28;13.90;99.90
54190;DHT22;40340;53.208;6.582;2022-10-13T16:50:54;13.90;99.90
54190;DHT22;40340;53.208;6.582;2022-10-13T16:53:20;13.90;99.90
54190;DHT22;40340;53.208;6.582;2022-10-13T16:55:46;13.90;99.90
54190;DHT22;40340;53.208;6.582;2022-10-13T16:58:12;13.90;99.90
54190;DHT22;40340;53.208;6.582;2022-10-13T17:00:38;13.90;99.90
54190;DHT22;40340;53.208;6.582;2022-10-13T17:03:04;13.90;99.90
54190;DHT22;40340;53.208;6.582;2022-10-13T17:05:31;13.90;99.90
54190;DHT22;40340;53.208;6.582;2022-10-13T17:07:57;13.90;99.90
54190;DHT22;40340;53.208;6.582;2022-10-13T17:10:22;13.90;99.90
54190;DHT22;40340;53.208;6.582;2022-10-13T17:12:48;13.90;99.90
54190;DHT22;40340;53.208;6.582;2022-10-13T17:15:16;13.80;99.90
54190;DHT22;40340;53.208;6.582;2022-10-13T17:17:42;13.80;99.90
54190;DHT22;40340;53.208;6.582;2022-10-13T17:20:09;13.70;99.90